createdAt,value
2023-09-09T00:00:05.915Z,6.47
2023-09-09T00:02:39.915Z,6.90
2023-09-09T00:05:08.219Z,6.18
2023-09-09T00:07:36.096Z,6.80
2023-09-09T00:10:06.152Z,6.60
2023-09-09T00:12:34.139Z,6.22
2023-09-09T00:15:05.477Z,6.43
2023-09-09T00:17:33.513Z,6.32
2023-09-09T00:20:01.403Z,6.45
2023-09-09T00:22:29.334Z,6.53
2023-09-09T00:24:57.201Z,6.70
2023-09-09T00:27:26.464Z,6.90
2023-09-09T00:29:54.415Z,6.28
2023-09-09T00:32:22.367Z,5.97
2023-09-09T00:34:50.293Z,6.30
2023-09-09T00:37:18.150Z,6.60
2023-09-09T00:39:46.048Z,6.25
2023-09-09T00:42:13.964Z,5.80
2023-09-09T00:44:43.290Z,6.30
2023-09-09T00:47:11.299Z,5.80
2023-09-09T00:49:39.335Z,5.90
2023-09-09T00:52:08.074Z,6.13
2023-09-09T00:54:36.024Z,7.03
2023-09-09T00:57:06.904Z,5.80
2023-09-09T00:59:35.507Z,6.30
2023-09-09T01:02:05.339Z,5.57
2023-09-09T01:04:33.590Z,6.35
2023-09-09T01:07:03.890Z,6.00
2023-09-09T01:09:35.139Z,5.60
2023-09-09T01:12:04.771Z,6.53
2023-09-09T01:14:32.999Z,5.80
2023-09-09T01:17:01.663Z,5.95
2023-09-09T01:19:32.553Z,6.10
2023-09-09T01:22:04.432Z,5.53
2023-09-09T01:24:33.809Z,6.10
2023-09-09T01:27:01.692Z,5.72
2023-09-09T01:29:29.620Z,6.53
2023-09-09T01:31:58.016Z,6.30
2023-09-09T01:34:27.385Z,6.00
2023-09-09T01:36:55.275Z,6.13
2023-09-09T01:39:23.203Z,5.88
2023-09-09T01:41:52.741Z,5.35
2023-09-09T01:44:20.650Z,6.07
2023-09-09T01:46:48.569Z,5.70
2023-09-09T01:49:16.744Z,6.18
2023-09-09T01:51:44.964Z,6.15
2023-09-09T01:54:13.313Z,5.85
2023-09-09T01:56:41.171Z,5.80
2023-09-09T01:59:10.561Z,6.20
2023-09-09T02:01:38.520Z,5.85
2023-09-09T02:04:06.710Z,5.97
2023-09-09T02:06:35.315Z,5.97
2023-09-09T02:09:05.140Z,5.63
2023-09-09T02:11:33.054Z,5.68
2023-09-09T02:14:00.962Z,6.32
2023-09-09T02:16:30.377Z,5.85
2023-09-09T02:18:59.792Z,6.20
2023-09-09T02:21:27.682Z,5.85
2023-09-09T02:23:55.665Z,5.35
2023-09-09T02:26:23.600Z,5.95
2023-09-09T02:28:51.617Z,6.07
2023-09-09T02:31:19.661Z,5.70
2023-09-09T02:33:49.032Z,6.23
2023-09-09T02:36:17.065Z,5.57
2023-09-09T02:38:45.006Z,5.65
2023-09-09T02:41:12.911Z,5.38
2023-09-09T02:43:40.815Z,5.72
2023-09-09T02:46:08.776Z,5.32
2023-09-09T02:48:36.945Z,5.67
2023-09-09T02:51:06.819Z,5.63
2023-09-09T02:53:35.016Z,5.57
2023-09-09T02:56:03.068Z,5.50
2023-09-09T02:58:30.996Z,5.85
2023-09-09T03:01:05.234Z,5.30
2023-09-09T03:03:34.030Z,5.57
2023-09-09T03:06:02.719Z,5.07
2023-09-09T03:08:32.156Z,5.22
2023-09-09T03:11:00.228Z,5.20
2023-09-09T03:13:28.682Z,5.60
2023-09-09T03:15:56.707Z,5.40
2023-09-09T03:18:24.726Z,5.35
2023-09-09T03:20:53.525Z,4.90
2023-09-09T03:23:21.619Z,5.65
2023-09-09T03:25:50.969Z,6.07
2023-09-09T03:28:18.816Z,5.93
2023-09-09T03:30:56.771Z,5.68
2023-09-09T03:33:28.594Z,5.07
2023-09-09T03:38:24.784Z,5.72
2023-09-09T03:40:54.159Z,5.00
2023-09-09T03:43:22.550Z,5.35
2023-09-09T03:45:55.805Z,5.88
2023-09-09T03:48:24.383Z,5.60
2023-09-09T03:50:52.593Z,6.38
2023-09-09T03:53:20.607Z,5.60
2023-09-09T03:55:48.713Z,5.63
2023-09-09T03:58:18.173Z,5.18
2023-09-09T04:00:48.023Z,5.90
2023-09-09T04:03:16.722Z,5.47
2023-09-09T04:05:48.236Z,5.10
2023-09-09T04:08:16.235Z,5.60
2023-09-09T04:10:44.694Z,5.43
2023-09-09T04:13:12.596Z,5.38
2023-09-09T04:15:42.071Z,6.05
2023-09-09T04:18:10.091Z,6.10
2023-09-09T04:20:38.100Z,6.93
2023-09-09T04:23:06.156Z,6.00
2023-09-09T04:25:34.185Z,6.72
2023-09-09T04:28:02.221Z,6.63
2023-09-09T04:30:30.167Z,5.65
2023-09-09T04:33:00.185Z,5.55
2023-09-09T04:35:28.327Z,5.90
2023-09-09T04:37:56.232Z,5.78
2023-09-09T04:40:24.143Z,6.10
2023-09-09T04:42:52.108Z,5.93
2023-09-09T04:45:20.411Z,6.50
2023-09-09T04:47:48.612Z,6.07
2023-09-09T04:50:18.068Z,6.17
2023-09-09T04:52:46.006Z,5.78
2023-09-09T04:55:13.928Z,6.07
2023-09-09T04:57:42.381Z,6.38
2023-09-09T05:00:12.712Z,5.75
2023-09-09T05:02:41.586Z,5.90
2023-09-09T05:07:39.335Z,6.07
2023-09-09T05:10:09.396Z,5.88
2023-09-09T05:12:38.661Z,5.93
2023-09-09T05:15:11.321Z,5.10
2023-09-09T05:17:40.078Z,6.00
2023-09-09T05:20:09.198Z,6.07
2023-09-09T05:22:38.873Z,5.50
2023-09-09T05:25:07.717Z,5.88
2023-09-09T05:27:35.659Z,6.57
2023-09-09T05:30:03.775Z,5.85
2023-09-09T05:32:32.026Z,5.63
2023-09-09T05:34:59.985Z,6.30
2023-09-09T05:37:28.529Z,5.95
2023-09-09T05:39:58.274Z,6.80
2023-09-09T05:42:27.082Z,6.18
2023-09-09T05:44:55.065Z,6.32
2023-09-09T05:47:23.000Z,5.63
2023-09-09T05:49:51.403Z,5.22
2023-09-09T05:52:19.344Z,5.30
2023-09-09T05:54:47.242Z,5.15
2023-09-09T05:57:16.536Z,5.40
2023-09-09T05:59:44.747Z,5.43
2023-09-09T06:02:14.601Z,5.60
2023-09-09T06:04:42.773Z,5.00
2023-09-09T06:07:10.892Z,5.20
2023-09-09T06:09:38.852Z,5.18
2023-09-09T06:12:07.706Z,4.67
2023-09-09T06:14:37.173Z,5.38
2023-09-09T06:17:05.832Z,5.22
2023-09-09T06:19:33.844Z,5.13
2023-09-09T06:22:01.769Z,5.30
2023-09-09T06:24:30.339Z,4.80
2023-09-09T06:26:58.646Z,5.50
2023-09-09T06:29:27.428Z,4.93
2023-09-09T06:31:57.390Z,4.97
2023-09-09T06:34:25.850Z,4.90
2023-09-09T06:36:54.427Z,4.57
2023-09-09T06:39:22.314Z,5.20
2023-09-09T06:41:53.044Z,4.85
2023-09-09T06:44:25.557Z,4.72
2023-09-09T06:46:53.439Z,5.03
2023-09-09T06:49:22.689Z,4.80
2023-09-09T06:51:50.648Z,5.63
2023-09-09T06:54:18.532Z,4.57
2023-09-09T06:56:48.061Z,4.85
2023-09-09T06:59:15.927Z,4.65
2023-09-09T07:01:44.419Z,4.30
2023-09-09T07:04:12.404Z,4.22
2023-09-09T07:09:31.014Z,4.53
2023-09-09T07:12:00.236Z,4.15
2023-09-09T07:14:28.112Z,4.47
2023-09-09T07:16:55.974Z,4.15
2023-09-09T07:19:23.898Z,4.65
2023-09-09T07:21:53.210Z,4.40
2023-09-09T07:24:21.235Z,4.30
2023-09-09T07:26:49.478Z,3.78
2023-09-09T07:29:17.348Z,4.38
2023-09-09T07:34:13.096Z,4.13
2023-09-09T07:36:41.083Z,4.38
2023-09-09T07:41:38.051Z,4.25
2023-09-09T07:44:06.260Z,4.13
2023-09-09T07:46:34.282Z,3.95
2023-09-09T07:49:02.237Z,4.22
2023-09-09T07:51:30.437Z,4.38
2023-09-09T07:53:58.359Z,4.43
2023-09-09T07:56:27.669Z,3.63
2023-09-09T07:58:55.743Z,3.78
2023-09-09T08:01:23.819Z,4.30
2023-09-09T08:03:51.800Z,3.97
2023-09-09T08:06:19.776Z,4.15
2023-09-09T08:08:48.835Z,4.45
2023-09-09T08:11:18.631Z,4.32
2023-09-09T08:13:47.916Z,3.45
2023-09-09T08:16:15.926Z,4.18
2023-09-09T08:18:43.993Z,3.80
2023-09-09T08:21:14.084Z,4.22
2023-09-09T08:23:42.072Z,4.00
2023-09-09T08:26:10.715Z,5.18
2023-09-09T08:28:38.693Z,4.32
2023-09-09T08:31:08.167Z,4.18
2023-09-09T08:33:36.593Z,4.20
2023-09-09T08:36:05.311Z,4.25
2023-09-09T08:38:33.566Z,4.25
2023-09-09T08:41:06.133Z,4.30
2023-09-09T08:43:42.808Z,3.60
2023-09-09T08:46:16.105Z,4.30
2023-09-09T08:48:44.777Z,4.30
2023-09-09T08:51:15.440Z,4.20
2023-09-09T08:53:45.179Z,4.00
2023-09-09T08:56:14.270Z,4.03
2023-09-09T08:58:42.443Z,4.20
2023-09-09T09:01:11.039Z,4.18
2023-09-09T09:03:41.635Z,3.58
2023-09-09T09:06:10.961Z,3.58
2023-09-09T09:08:38.968Z,4.15
2023-09-09T09:11:08.362Z,4.22
2023-09-09T09:13:36.507Z,4.35
2023-09-09T09:16:05.186Z,4.10
2023-09-09T09:18:33.189Z,4.50
2023-09-09T09:21:09.400Z,4.03
2023-09-09T09:23:44.157Z,3.90
2023-09-09T09:26:25.008Z,4.45
2023-09-09T09:28:53.587Z,4.18
2023-09-09T09:31:22.397Z,4.13
2023-09-09T09:33:51.797Z,4.15
2023-09-09T09:36:21.652Z,3.80
2023-09-09T09:38:50.535Z,4.45
2023-09-09T09:41:19.353Z,4.00
2023-09-09T09:43:48.005Z,4.35
2023-09-09T09:46:16.632Z,4.40
2023-09-09T09:48:44.991Z,3.45
2023-09-09T09:51:13.204Z,4.65
2023-09-09T09:53:53.168Z,3.80
2023-09-09T09:56:21.554Z,4.03
2023-09-09T09:58:51.385Z,4.30
2023-09-09T10:01:19.495Z,4.07
2023-09-09T10:03:49.504Z,3.75
2023-09-09T10:06:21.388Z,3.65
2023-09-09T10:08:58.205Z,3.97
2023-09-09T10:11:29.990Z,3.63
2023-09-09T10:14:09.064Z,3.90
2023-09-09T10:16:38.710Z,3.78
2023-09-09T10:19:07.296Z,4.03
2023-09-09T10:21:42.493Z,4.18
2023-09-09T10:24:13.199Z,3.65
2023-09-09T10:26:42.206Z,3.75
2023-09-09T10:29:11.046Z,4.05
2023-09-09T10:31:39.502Z,4.35
2023-09-09T10:34:10.287Z,4.10
2023-09-09T10:36:50.890Z,4.30
2023-09-09T10:39:29.277Z,4.15
2023-09-09T10:41:58.118Z,4.15
2023-09-09T10:44:26.342Z,4.15
2023-09-09T10:46:58.674Z,3.85
2023-09-09T10:49:28.394Z,4.28
2023-09-09T10:51:57.085Z,4.13
2023-09-09T10:54:26.995Z,4.28
2023-09-09T10:56:59.316Z,4.57
2023-09-09T10:59:29.924Z,4.15
2023-09-09T11:02:11.644Z,4.75
2023-09-09T11:04:41.005Z,4.13
2023-09-09T11:07:10.710Z,3.97
2023-09-09T11:09:39.334Z,3.70
2023-09-09T11:12:15.844Z,4.38
2023-09-09T11:14:47.534Z,4.20
2023-09-09T11:17:15.801Z,3.58
2023-09-09T11:19:45.150Z,4.03
2023-09-09T11:22:13.610Z,4.32
2023-09-09T11:24:42.338Z,3.35
2023-09-09T11:27:11.752Z,3.40
2023-09-09T11:29:41.079Z,3.70
2023-09-09T11:32:11.395Z,3.65
2023-09-09T11:34:39.607Z,3.70
2023-09-09T11:42:08.540Z,3.63
2023-09-09T11:44:40.632Z,3.47
2023-09-09T11:47:10.334Z,3.55
2023-09-09T11:49:39.745Z,3.70
2023-09-09T11:52:07.933Z,3.63
2023-09-09T11:54:36.296Z,4.00
2023-09-09T11:57:08.336Z,3.40
2023-09-09T11:59:45.696Z,3.53
2023-09-09T12:02:22.248Z,3.90
2023-09-09T12:05:00.668Z,3.40
2023-09-09T12:07:32.633Z,3.63
2023-09-09T12:10:01.928Z,3.83
2023-09-09T12:12:30.497Z,4.13
2023-09-09T12:15:00.229Z,3.65
2023-09-09T12:17:30.392Z,3.83
2023-09-09T12:19:59.231Z,4.05
2023-09-09T12:22:36.807Z,4.30
2023-09-09T12:25:07.308Z,3.47
2023-09-09T12:27:43.090Z,4.20
2023-09-09T12:30:32.459Z,4.03
2023-09-09T12:33:07.683Z,3.47
2023-09-09T12:35:36.634Z,4.28
2023-09-09T12:38:05.403Z,3.67
2023-09-09T12:40:49.157Z,3.78
2023-09-09T12:43:18.366Z,3.75
2023-09-09T12:45:50.893Z,4.25
2023-09-09T12:48:21.159Z,4.13
2023-09-09T12:50:50.593Z,4.20
2023-09-09T12:53:18.861Z,3.53
2023-09-09T12:55:46.915Z,3.67
2023-09-09T13:00:43.126Z,3.70
2023-09-09T13:03:11.141Z,3.75
2023-09-09T13:08:08.263Z,3.83
2023-09-09T13:10:36.157Z,4.30
2023-09-09T13:13:04.292Z,4.10
2023-09-09T13:15:32.311Z,4.20
2023-09-09T13:18:00.310Z,4.45
2023-09-09T13:20:28.255Z,4.13
2023-09-09T13:22:57.815Z,4.35
2023-09-09T13:25:25.826Z,4.07
2023-09-09T13:27:53.969Z,4.25
2023-09-09T13:30:21.877Z,4.30
2023-09-09T13:32:49.823Z,4.07
2023-09-09T13:35:18.193Z,3.75
2023-09-09T13:40:16.063Z,4.45
2023-09-09T13:42:45.070Z,3.85
2023-09-09T13:45:13.495Z,3.92
2023-09-09T13:47:41.579Z,4.18
2023-09-09T13:50:10.574Z,4.18
2023-09-09T13:52:38.661Z,4.10
2023-09-09T13:55:07.222Z,3.80
2023-09-09T13:57:36.480Z,3.97
2023-09-09T14:00:05.990Z,4.50
2023-09-09T14:02:34.022Z,4.15
2023-09-09T14:05:02.083Z,4.50
2023-09-09T14:07:29.974Z,4.00
2023-09-09T14:09:57.849Z,4.45
2023-09-09T14:12:25.738Z,4.60
2023-09-09T14:14:55.034Z,4.93
2023-09-09T14:17:22.964Z,4.20
2023-09-09T14:19:50.899Z,4.95
2023-09-09T14:22:18.824Z,4.45
2023-09-09T14:24:46.808Z,3.90
2023-09-09T14:27:14.864Z,4.65
2023-09-09T14:29:44.395Z,4.05
2023-09-09T14:32:13.693Z,4.60
2023-09-09T14:34:41.583Z,4.43
2023-09-09T14:37:09.521Z,5.20
2023-09-09T14:39:37.762Z,4.47
2023-09-09T14:42:06.464Z,4.70
2023-09-09T14:44:34.653Z,4.20
2023-09-09T14:47:02.590Z,4.35
2023-09-09T14:52:00.579Z,4.43
2023-09-09T14:54:28.516Z,5.10
2023-09-09T14:56:56.490Z,4.85
2023-09-09T14:59:24.717Z,4.40
2023-09-09T15:01:52.843Z,4.25
2023-09-09T15:06:50.857Z,5.30
2023-09-09T15:09:18.798Z,4.60
2023-09-09T15:11:46.738Z,4.40
2023-09-09T15:14:14.662Z,4.30
2023-09-09T15:16:50.303Z,4.50
2023-09-09T15:19:19.054Z,5.07
2023-09-09T15:21:47.333Z,4.10
2023-09-09T15:24:16.970Z,5.18
2023-09-09T15:26:44.917Z,5.43
2023-09-09T15:29:12.980Z,4.80
2023-09-09T15:31:41.137Z,4.28
2023-09-09T15:34:09.088Z,4.28
2023-09-09T15:36:37.090Z,4.28
2023-09-09T15:39:05.474Z,5.15
2023-09-09T15:41:34.797Z,4.38
2023-09-09T15:44:03.520Z,4.35
2023-09-09T15:46:31.635Z,5.10
2023-09-09T15:48:59.794Z,4.60
2023-09-09T15:51:28.188Z,4.28
2023-09-09T15:53:56.166Z,4.30
2023-09-09T15:56:25.689Z,4.40
2023-09-09T15:58:55.316Z,4.85
2023-09-09T16:01:23.319Z,5.18
2023-09-09T16:03:51.387Z,5.13
2023-09-09T16:06:19.384Z,4.93
2023-09-09T16:08:47.518Z,5.13
2023-09-09T16:11:15.552Z,5.22
2023-09-09T16:13:43.462Z,7.88
2023-09-09T16:16:13.148Z,5.30
2023-09-09T16:18:42.961Z,5.30
2023-09-09T16:21:10.977Z,4.65
2023-09-09T16:23:38.956Z,5.13
2023-09-09T16:26:07.092Z,5.18
2023-09-09T16:28:35.036Z,5.78
2023-09-09T16:31:05.504Z,6.13
2023-09-09T16:33:34.996Z,10.23
2023-09-09T16:36:04.552Z,8.02
2023-09-09T16:38:32.794Z,6.25
2023-09-09T16:41:00.675Z,6.25
2023-09-09T16:43:28.789Z,5.68
2023-09-09T16:45:56.870Z,5.68
2023-09-09T16:48:24.871Z,5.88
2023-09-09T16:50:54.326Z,5.90
2023-09-09T16:53:22.443Z,6.13
2023-09-09T16:55:50.519Z,5.80
2023-09-09T16:58:18.620Z,5.30
2023-09-09T17:00:49.662Z,5.30
2023-09-09T17:03:18.223Z,5.13
2023-09-09T17:05:46.572Z,5.30
2023-09-09T17:08:15.846Z,6.43
2023-09-09T17:10:43.998Z,5.50
2023-09-09T17:13:11.915Z,5.07
2023-09-09T17:15:41.996Z,5.38
2023-09-09T17:18:10.410Z,5.43
2023-09-09T17:20:38.487Z,5.25
2023-09-09T17:23:06.464Z,5.38
2023-09-09T17:25:36.433Z,5.03
2023-09-09T17:28:05.646Z,5.20
2023-09-09T17:30:33.661Z,4.68
2023-09-09T17:33:01.752Z,4.65
2023-09-09T17:35:29.962Z,4.97
2023-09-09T17:37:57.932Z,5.22
2023-09-09T17:40:26.019Z,4.90
2023-09-09T17:42:55.468Z,4.78
2023-09-09T17:45:23.437Z,5.35
2023-09-09T17:47:51.359Z,5.57
2023-09-09T17:50:19.434Z,4.88
2023-09-09T17:52:47.442Z,7.00
2023-09-09T17:55:15.720Z,5.15
2023-09-09T17:57:43.590Z,5.25
2023-09-09T18:00:13.565Z,4.83
2023-09-09T18:02:43.223Z,5.40
2023-09-09T18:05:11.513Z,5.72
2023-09-09T18:07:39.673Z,5.38
2023-09-09T18:10:11.250Z,5.72
2023-09-09T18:12:39.970Z,5.63
2023-09-09T18:17:37.416Z,5.43
2023-09-09T18:20:06.204Z,6.00
2023-09-09T18:25:02.565Z,6.25
2023-09-09T18:27:30.527Z,6.57
2023-09-09T18:30:00.669Z,5.47
2023-09-09T18:32:28.663Z,5.30
2023-09-09T18:34:58.110Z,5.50
2023-09-09T18:37:26.083Z,5.13
2023-09-09T18:39:54.075Z,4.82
2023-09-09T18:42:21.979Z,4.97
2023-09-09T18:44:50.008Z,5.57
2023-09-09T18:47:18.062Z,5.20
2023-09-09T18:49:46.095Z,5.68
2023-09-09T18:52:15.439Z,6.20
2023-09-09T18:54:44.800Z,5.43
2023-09-09T18:57:13.490Z,5.53
2023-09-09T19:02:09.230Z,6.32
2023-09-09T19:04:37.233Z,6.30
2023-09-09T19:07:05.759Z,6.72
2023-09-09T19:09:35.003Z,6.50
2023-09-09T19:12:03.004Z,6.57
2023-09-09T19:14:30.916Z,6.30
2023-09-09T19:16:58.867Z,5.93
2023-09-09T19:19:26.809Z,5.30
2023-09-09T19:21:54.944Z,5.57
2023-09-09T19:24:22.924Z,6.10
2023-09-09T19:26:52.226Z,6.03
2023-09-09T19:29:20.136Z,6.03
2023-09-09T19:31:48.143Z,5.70
2023-09-09T19:34:16.140Z,6.03
2023-09-09T19:36:45.486Z,5.60
2023-09-09T19:39:14.858Z,5.68
2023-09-09T19:41:45.230Z,6.30
2023-09-09T19:44:14.497Z,6.35
2023-09-09T19:46:42.418Z,6.65
2023-09-09T19:49:10.431Z,6.75
2023-09-09T19:51:38.293Z,6.30
2023-09-09T19:54:06.446Z,6.93
2023-09-09T19:56:34.787Z,6.72
2023-09-09T19:59:02.827Z,6.28
2023-09-09T20:01:32.175Z,7.15
2023-09-09T20:04:00.397Z,6.85
2023-09-09T20:06:28.427Z,6.80
2023-09-09T20:08:56.393Z,7.43
2023-09-09T20:11:24.422Z,7.23
2023-09-09T20:13:52.424Z,6.77
2023-09-09T20:16:20.520Z,6.67
2023-09-09T20:18:49.850Z,6.82
2023-09-09T20:21:17.731Z,6.72
2023-09-09T20:23:45.674Z,6.75
2023-09-09T20:26:13.617Z,6.50
2023-09-09T20:28:41.945Z,6.50
2023-09-09T20:31:10.222Z,6.95
2023-09-09T20:33:38.167Z,7.00
2023-09-09T20:36:08.657Z,7.20
2023-09-09T20:38:37.215Z,7.38
2023-09-09T20:43:33.598Z,7.30
2023-09-09T20:46:09.590Z,8.00
2023-09-09T20:48:37.844Z,9.27
2023-09-09T20:51:07.440Z,8.80
2023-09-09T20:53:35.540Z,8.82
2023-09-09T20:56:09.794Z,8.13
2023-09-09T20:58:38.347Z,8.07
2023-09-09T21:01:07.066Z,8.95
2023-09-09T21:03:35.107Z,8.30
2023-09-09T21:06:03.556Z,8.02
2023-09-09T21:08:33.055Z,8.25
2023-09-09T21:11:01.080Z,7.55
2023-09-09T21:13:29.133Z,8.53
2023-09-09T21:15:57.144Z,8.37
2023-09-09T21:18:25.044Z,8.70
2023-09-09T21:20:52.964Z,9.00
2023-09-09T21:23:20.896Z,9.18
2023-09-09T21:25:50.178Z,8.68
2023-09-09T21:28:18.292Z,8.73
2023-09-09T21:30:46.675Z,8.60
2023-09-09T21:33:14.588Z,9.10
2023-09-09T21:35:42.652Z,9.90
2023-09-09T21:38:10.580Z,10.53
2023-09-09T21:40:38.513Z,8.43
2023-09-09T21:43:07.808Z,8.82
2023-09-09T21:45:35.772Z,8.75
2023-09-09T21:48:03.792Z,8.10
2023-09-09T21:50:31.723Z,8.73
2023-09-09T21:52:59.695Z,8.35
2023-09-09T21:55:27.689Z,9.37
2023-09-09T21:57:55.644Z,8.50
2023-09-09T22:00:25.086Z,8.55
2023-09-09T22:02:53.504Z,8.13
2023-09-09T22:05:21.845Z,8.13
2023-09-09T22:07:49.892Z,8.68
2023-09-09T22:10:18.288Z,8.10
2023-09-09T22:12:46.733Z,7.10
2023-09-09T22:15:14.678Z,7.40
2023-09-09T22:17:44.003Z,7.40
2023-09-09T22:20:13.194Z,6.55
2023-09-09T22:22:42.003Z,6.63
2023-09-09T22:25:10.741Z,7.72
2023-09-09T22:27:38.760Z,6.72
2023-09-09T22:30:07.846Z,7.10
2023-09-09T22:32:35.925Z,6.72
2023-09-09T22:35:07.127Z,7.25
2023-09-09T22:37:36.199Z,7.07
2023-09-09T22:42:33.169Z,7.03
2023-09-09T22:45:01.072Z,6.88
2023-09-09T22:47:29.016Z,6.60
2023-09-09T22:49:57.172Z,6.88
2023-09-09T22:52:26.542Z,6.30
2023-09-09T22:54:54.615Z,6.20
2023-09-09T22:57:22.751Z,6.68
2023-09-09T22:59:50.978Z,5.90
2023-09-09T23:02:18.905Z,6.82
2023-09-09T23:04:51.130Z,6.27
2023-09-09T23:07:19.313Z,6.63
2023-09-09T23:09:53.774Z,6.30
2023-09-09T23:12:21.882Z,6.40
2023-09-09T23:14:49.780Z,6.60
2023-09-09T23:17:17.728Z,6.33
2023-09-09T23:19:45.718Z,5.93
2023-09-09T23:22:13.741Z,6.67
2023-09-09T23:24:43.320Z,6.53
2023-09-09T23:27:12.619Z,6.43
2023-09-09T23:29:40.502Z,6.03
2023-09-09T23:32:08.688Z,6.15
2023-09-09T23:34:38.840Z,6.20
2023-09-09T23:37:06.981Z,6.65
2023-09-09T23:39:34.926Z,5.93
2023-09-09T23:42:03.978Z,6.20
2023-09-09T23:44:33.214Z,6.15
2023-09-09T23:47:01.188Z,6.85
2023-09-09T23:49:29.119Z,6.40
2023-09-09T23:51:57.009Z,6.35
2023-09-09T23:54:24.883Z,6.20
2023-09-09T23:56:52.839Z,6.07
2023-09-09T23:59:20.788Z,5.20
